sensor_id;sensor_type;location;lat;lon;timestamp;P1;durP1;ratioP1;P2;durP2;ratioP2
9188;SDS011;34313;50.780;6.084;2023-06-19T00:00:12;5.77;;;5.17;;
9188;SDS011;34313;50.780;6.084;2023-06-19T00:03:05;6.13;;;5.63;;
9188;SDS011;34313;50.780;6.084;2023-06-19T00:05:40;6.30;;;5.70;;
9188;SDS011;34313;50.780;6.084;2023-06-19T00:15:27;8.90;;;6.50;;
9188;SDS011;34313;50.780;6.084;2023-06-19T00:18:03;6.33;;;5.73;;
9188;SDS011;34313;50.780;6.084;2023-06-19T00:21:10;6.57;;;5.90;;
9188;SDS011;34313;50.780;6.084;2023-06-19T00:28:08;6.10;;;5.50;;
9188;SDS011;34313;50.780;6.084;2023-06-19T00:34:25;7.90;;;5.77;;
9188;SDS011;34313;50.780;6.084;2023-06-19T00:40:08;6.67;;;5.83;;
9188;SDS011;34313;50.780;6.084;2023-06-19T00:43:03;6.50;;;5.90;;
9188;SDS011;34313;50.780;6.084;2023-06-19T00:55:11;6.37;;;5.63;;
9188;SDS011;34313;50.780;6.084;2023-06-19T00:58:31;7.10;;;5.83;;
9188;SDS011;34313;50.780;6.084;2023-06-19T01:02:12;8.27;;;6.53;;
9188;SDS011;34313;50.780;6.084;2023-06-19T01:11:03;5.80;;;5.20;;
9188;SDS011;34313;50.780;6.084;2023-06-19T01:17:43;9.97;;;6.13;;
9188;SDS011;34313;50.780;6.084;2023-06-19T01:23:54;6.80;;;6.10;;
9188;SDS011;34313;50.780;6.084;2023-06-19T01:26:34;7.20;;;6.40;;
9188;SDS011;34313;50.780;6.084;2023-06-19T01:29:21;5.60;;;5.10;;
9188;SDS011;34313;50.780;6.084;2023-06-19T01:32:20;10.13;;;5.70;;
9188;SDS011;34313;50.780;6.084;2023-06-19T01:35:34;6.20;;;5.33;;
9188;SDS011;34313;50.780;6.084;2023-06-19T01:44:43;7.60;;;5.13;;
9188;SDS011;34313;50.780;6.084;2023-06-19T01:48:08;9.23;;;5.63;;
9188;SDS011;34313;50.780;6.084;2023-06-19T01:51:07;6.47;;;5.60;;
9188;SDS011;34313;50.780;6.084;2023-06-19T01:54:10;7.30;;;6.20;;
9188;SDS011;34313;50.780;6.084;2023-06-19T01:57:08;5.40;;;4.90;;
9188;SDS011;34313;50.780;6.084;2023-06-19T01:59:57;6.20;;;5.17;;
9188;SDS011;34313;50.780;6.084;2023-06-19T02:02:29;5.30;;;4.53;;
9188;SDS011;34313;50.780;6.084;2023-06-19T02:06:10;6.00;;;5.13;;
9188;SDS011;34313;50.780;6.084;2023-06-19T02:09:34;8.57;;;5.27;;
9188;SDS011;34313;50.780;6.084;2023-06-19T02:12:09;5.83;;;4.70;;
9188;SDS011;34313;50.780;6.084;2023-06-19T02:15:20;5.17;;;4.60;;
9188;SDS011;34313;50.780;6.084;2023-06-19T02:23:41;5.00;;;4.33;;
9188;SDS011;34313;50.780;6.084;2023-06-19T02:26:47;6.87;;;4.70;;
9188;SDS011;34313;50.780;6.084;2023-06-19T02:29:46;6.03;;;4.40;;
9188;SDS011;34313;50.780;6.084;2023-06-19T02:32:17;6.43;;;4.80;;
9188;SDS011;34313;50.780;6.084;2023-06-19T02:41:03;5.43;;;4.30;;
9188;SDS011;34313;50.780;6.084;2023-06-19T02:43:29;4.40;;;4.00;;
9188;SDS011;34313;50.780;6.084;2023-06-19T02:46:12;6.40;;;4.97;;
9188;SDS011;34313;50.780;6.084;2023-06-19T02:48:42;4.27;;;3.87;;
9188;SDS011;34313;50.780;6.084;2023-06-19T02:51:08;7.13;;;4.40;;
9188;SDS011;34313;50.780;6.084;2023-06-19T02:53:36;7.63;;;4.17;;
9188;SDS011;34313;50.780;6.084;2023-06-19T02:56:08;4.60;;;3.90;;
9188;SDS011;34313;50.780;6.084;2023-06-19T02:58:34;4.97;;;3.97;;
9188;SDS011;34313;50.780;6.084;2023-06-19T03:01:02;4.60;;;3.70;;
9188;SDS011;34313;50.780;6.084;2023-06-19T03:03:38;9.33;;;4.23;;
9188;SDS011;34313;50.780;6.084;2023-06-19T03:06:09;6.07;;;3.80;;
9188;SDS011;34313;50.780;6.084;2023-06-19T03:08:57;3.40;;;3.10;;
9188;SDS011;34313;50.780;6.084;2023-06-19T03:11:27;5.80;;;4.07;;
9188;SDS011;34313;50.780;6.084;2023-06-19T03:14:03;4.17;;;3.67;;
9188;SDS011;34313;50.780;6.084;2023-06-19T03:16:35;4.20;;;3.50;;
9188;SDS011;34313;50.780;6.084;2023-06-19T03:19:08;5.40;;;3.83;;
9188;SDS011;34313;50.780;6.084;2023-06-19T03:21:42;5.70;;;3.80;;
9188;SDS011;34313;50.780;6.084;2023-06-19T03:24:08;4.83;;;3.90;;
9188;SDS011;34313;50.780;6.084;2023-06-19T03:26:36;6.83;;;4.70;;
9188;SDS011;34313;50.780;6.084;2023-06-19T03:29:02;4.60;;;3.60;;
9188;SDS011;34313;50.780;6.084;2023-06-19T03:31:27;4.30;;;3.77;;
9188;SDS011;34313;50.780;6.084;2023-06-19T03:33:52;6.97;;;4.10;;
9188;SDS011;34313;50.780;6.084;2023-06-19T03:36:18;3.90;;;3.40;;
9188;SDS011;34313;50.780;6.084;2023-06-19T03:38:43;4.70;;;3.90;;
9188;SDS011;34313;50.780;6.084;2023-06-19T03:41:08;4.03;;;3.63;;
9188;SDS011;34313;50.780;6.084;2023-06-19T03:43:33;4.70;;;3.40;;
9188;SDS011;34313;50.780;6.084;2023-06-19T03:45:59;4.43;;;3.43;;
9188;SDS011;34313;50.780;6.084;2023-06-19T03:48:24;4.30;;;3.70;;
9188;SDS011;34313;50.780;6.084;2023-06-19T03:50:49;6.07;;;3.70;;
9188;SDS011;34313;50.780;6.084;2023-06-19T03:53:15;5.10;;;3.60;;
9188;SDS011;34313;50.780;6.084;2023-06-19T03:55:40;4.60;;;3.60;;
9188;SDS011;34313;50.780;6.084;2023-06-19T03:58:05;5.33;;;4.23;;
9188;SDS011;34313;50.780;6.084;2023-06-19T04:00:31;6.63;;;3.93;;
9188;SDS011;34313;50.780;6.084;2023-06-19T04:02:56;4.67;;;4.03;;
9188;SDS011;34313;50.780;6.084;2023-06-19T04:05:22;5.03;;;3.47;;
9188;SDS011;34313;50.780;6.084;2023-06-19T04:07:47;4.47;;;3.50;;
9188;SDS011;34313;50.780;6.084;2023-06-19T04:10:13;3.73;;;3.40;;
9188;SDS011;34313;50.780;6.084;2023-06-19T04:12:39;6.83;;;3.97;;
9188;SDS011;34313;50.780;6.084;2023-06-19T04:15:05;3.77;;;3.47;;
9188;SDS011;34313;50.780;6.084;2023-06-19T04:17:31;3.63;;;3.10;;
9188;SDS011;34313;50.780;6.084;2023-06-19T04:19:57;4.63;;;3.43;;
9188;SDS011;34313;50.780;6.084;2023-06-19T04:22:22;5.40;;;3.80;;
9188;SDS011;34313;50.780;6.084;2023-06-19T04:24:47;5.43;;;3.50;;
9188;SDS011;34313;50.780;6.084;2023-06-19T04:27:12;5.80;;;3.57;;
9188;SDS011;34313;50.780;6.084;2023-06-19T04:29:38;6.00;;;3.33;;
9188;SDS011;34313;50.780;6.084;2023-06-19T04:32:03;5.03;;;2.97;;
9188;SDS011;34313;50.780;6.084;2023-06-19T04:34:37;4.27;;;3.87;;
9188;SDS011;34313;50.780;6.084;2023-06-19T04:37:03;4.73;;;3.40;;
9188;SDS011;34313;50.780;6.084;2023-06-19T04:39:29;4.10;;;3.63;;
9188;SDS011;34313;50.780;6.084;2023-06-19T04:41:54;5.47;;;3.80;;
9188;SDS011;34313;50.780;6.084;2023-06-19T04:44:19;4.77;;;3.77;;
9188;SDS011;34313;50.780;6.084;2023-06-19T04:46:45;4.30;;;3.77;;
9188;SDS011;34313;50.780;6.084;2023-06-19T04:49:11;5.03;;;4.10;;
9188;SDS011;34313;50.780;6.084;2023-06-19T04:51:40;5.27;;;3.67;;
9188;SDS011;34313;50.780;6.084;2023-06-19T04:54:06;5.30;;;3.70;;
9188;SDS011;34313;50.780;6.084;2023-06-19T04:56:31;3.67;;;3.30;;
9188;SDS011;34313;50.780;6.084;2023-06-19T04:58:57;4.10;;;3.37;;
9188;SDS011;34313;50.780;6.084;2023-06-19T05:01:24;3.17;;;2.83;;
9188;SDS011;34313;50.780;6.084;2023-06-19T05:03:53;2.93;;;2.53;;
9188;SDS011;34313;50.780;6.084;2023-06-19T05:06:20;4.90;;;3.50;;
9188;SDS011;34313;50.780;6.084;2023-06-19T05:08:46;13.03;;;3.60;;
9188;SDS011;34313;50.780;6.084;2023-06-19T05:11:12;3.53;;;2.63;;
9188;SDS011;34313;50.780;6.084;2023-06-19T05:13:38;3.90;;;2.80;;
9188;SDS011;34313;50.780;6.084;2023-06-19T05:16:03;3.00;;;2.50;;
9188;SDS011;34313;50.780;6.084;2023-06-19T05:18:31;2.93;;;2.40;;
9188;SDS011;34313;50.780;6.084;2023-06-19T05:20:56;2.73;;;2.40;;
9188;SDS011;34313;50.780;6.084;2023-06-19T05:23:22;4.23;;;3.33;;
9188;SDS011;34313;50.780;6.084;2023-06-19T05:25:47;3.27;;;2.77;;
9188;SDS011;34313;50.780;6.084;2023-06-19T05:28:12;3.10;;;2.67;;
9188;SDS011;34313;50.780;6.084;2023-06-19T05:30:38;3.53;;;2.40;;
9188;SDS011;34313;50.780;6.084;2023-06-19T05:33:03;3.80;;;2.30;;
9188;SDS011;34313;50.780;6.084;2023-06-19T05:35:29;2.67;;;2.47;;
9188;SDS011;34313;50.780;6.084;2023-06-19T05:38:00;3.17;;;2.87;;
9188;SDS011;34313;50.780;6.084;2023-06-19T05:40:25;3.00;;;2.50;;
9188;SDS011;34313;50.780;6.084;2023-06-19T05:42:53;2.77;;;2.57;;
9188;SDS011;34313;50.780;6.084;2023-06-19T05:45:20;3.37;;;2.43;;
9188;SDS011;34313;50.780;6.084;2023-06-19T05:47:46;2.40;;;2.20;;
9188;SDS011;34313;50.780;6.084;2023-06-19T05:50:11;3.03;;;2.73;;
9188;SDS011;34313;50.780;6.084;2023-06-19T05:52:37;2.53;;;2.33;;
9188;SDS011;34313;50.780;6.084;2023-06-19T05:55:06;5.30;;;2.90;;
9188;SDS011;34313;50.780;6.084;2023-06-19T05:57:38;4.33;;;3.00;;
9188;SDS011;34313;50.780;6.084;2023-06-19T06:00:04;5.40;;;2.63;;
9188;SDS011;34313;50.780;6.084;2023-06-19T06:02:31;6.17;;;2.90;;
9188;SDS011;34313;50.780;6.084;2023-06-19T06:04:56;5.13;;;2.80;;
9188;SDS011;34313;50.780;6.084;2023-06-19T06:07:24;4.70;;;3.17;;
9188;SDS011;34313;50.780;6.084;2023-06-19T06:09:52;4.57;;;2.77;;
9188;SDS011;34313;50.780;6.084;2023-06-19T06:12:18;2.40;;;2.20;;
9188;SDS011;34313;50.780;6.084;2023-06-19T06:14:43;4.13;;;2.57;;
9188;SDS011;34313;50.780;6.084;2023-06-19T06:17:08;2.47;;;2.20;;
9188;SDS011;34313;50.780;6.084;2023-06-19T06:19:34;4.83;;;2.80;;
9188;SDS011;34313;50.780;6.084;2023-06-19T06:22:02;2.57;;;2.37;;
9188;SDS011;34313;50.780;6.084;2023-06-19T06:24:27;2.90;;;2.47;;
9188;SDS011;34313;50.780;6.084;2023-06-19T06:26:55;2.87;;;2.40;;
9188;SDS011;34313;50.780;6.084;2023-06-19T06:29:20;4.47;;;2.80;;
9188;SDS011;34313;50.780;6.084;2023-06-19T06:31:49;4.90;;;3.10;;
9188;SDS011;34313;50.780;6.084;2023-06-19T06:34:17;3.10;;;2.40;;
9188;SDS011;34313;50.780;6.084;2023-06-19T06:36:44;3.17;;;2.63;;
9188;SDS011;34313;50.780;6.084;2023-06-19T06:39:09;3.10;;;2.77;;
9188;SDS011;34313;50.780;6.084;2023-06-19T06:41:35;2.73;;;2.50;;
9188;SDS011;34313;50.780;6.084;2023-06-19T06:44:01;2.90;;;2.37;;
9188;SDS011;34313;50.780;6.084;2023-06-19T06:46:26;7.63;;;3.00;;
9188;SDS011;34313;50.780;6.084;2023-06-19T06:48:52;4.30;;;2.73;;
9188;SDS011;34313;50.780;6.084;2023-06-19T06:51:17;3.80;;;2.50;;
9188;SDS011;34313;50.780;6.084;2023-06-19T06:53:42;3.42;;;2.33;;
9188;SDS011;34313;50.780;6.084;2023-06-19T06:56:08;2.15;;;1.98;;
9188;SDS011;34313;50.780;6.084;2023-06-19T06:58:33;4.70;;;2.45;;
9188;SDS011;34313;50.780;6.084;2023-06-19T07:00:59;3.30;;;2.50;;
9188;SDS011;34313;50.780;6.084;2023-06-19T07:03:24;2.53;;;2.23;;
9188;SDS011;34313;50.780;6.084;2023-06-19T07:05:49;9.37;;;3.00;;
9188;SDS011;34313;50.780;6.084;2023-06-19T07:08:14;5.90;;;3.10;;
9188;SDS011;34313;50.780;6.084;2023-06-19T07:10:40;3.90;;;3.40;;
9188;SDS011;34313;50.780;6.084;2023-06-19T07:13:05;3.77;;;3.40;;
9188;SDS011;34313;50.780;6.084;2023-06-19T07:15:31;6.50;;;3.47;;
9188;SDS011;34313;50.780;6.084;2023-06-19T07:17:56;3.00;;;2.70;;
9188;SDS011;34313;50.780;6.084;2023-06-19T07:20:21;4.80;;;2.97;;
9188;SDS011;34313;50.780;6.084;2023-06-19T07:22:47;4.83;;;2.90;;
9188;SDS011;34313;50.780;6.084;2023-06-19T07:25:15;4.37;;;3.00;;
9188;SDS011;34313;50.780;6.084;2023-06-19T07:27:40;2.90;;;2.70;;
9188;SDS011;34313;50.780;6.084;2023-06-19T07:30:06;4.30;;;3.17;;
9188;SDS011;34313;50.780;6.084;2023-06-19T07:32:32;3.87;;;3.20;;
9188;SDS011;34313;50.780;6.084;2023-06-19T07:34:58;7.10;;;3.10;;
9188;SDS011;34313;50.780;6.084;2023-06-19T07:37:23;3.40;;;2.80;;
9188;SDS011;34313;50.780;6.084;2023-06-19T07:39:49;6.25;;;3.15;;
9188;SDS011;34313;50.780;6.084;2023-06-19T07:42:15;3.90;;;3.05;;
9188;SDS011;34313;50.780;6.084;2023-06-19T07:44:42;3.20;;;2.85;;
9188;SDS011;34313;50.780;6.084;2023-06-19T07:47:08;5.75;;;3.22;;
9188;SDS011;34313;50.780;6.084;2023-06-19T07:49:34;8.85;;;2.88;;
9188;SDS011;34313;50.780;6.084;2023-06-19T07:52:00;9.50;;;3.35;;
9188;SDS011;34313;50.780;6.084;2023-06-19T07:54:26;4.53;;;4.07;;
9188;SDS011;34313;50.780;6.084;2023-06-19T07:56:53;5.75;;;4.00;;
9188;SDS011;34313;50.780;6.084;2023-06-19T07:59:22;7.45;;;3.50;;
9188;SDS011;34313;50.780;6.084;2023-06-19T08:01:47;4.45;;;2.58;;
9188;SDS011;34313;50.780;6.084;2023-06-19T08:04:14;5.88;;;3.72;;
9188;SDS011;34313;50.780;6.084;2023-06-19T08:06:42;8.05;;;3.45;;
9188;SDS011;34313;50.780;6.084;2023-06-19T08:09:08;4.75;;;2.90;;
9188;SDS011;34313;50.780;6.084;2023-06-19T08:11:36;4.60;;;2.50;;
9188;SDS011;34313;50.780;6.084;2023-06-19T08:14:02;4.40;;;3.10;;
9188;SDS011;34313;50.780;6.084;2023-06-19T08:16:28;3.40;;;3.10;;
9188;SDS011;34313;50.780;6.084;2023-06-19T08:18:53;3.28;;;2.97;;
9188;SDS011;34313;50.780;6.084;2023-06-19T08:21:19;4.00;;;3.17;;
9188;SDS011;34313;50.780;6.084;2023-06-19T08:23:47;6.20;;;3.15;;
9188;SDS011;34313;50.780;6.084;2023-06-19T08:26:13;4.32;;;3.00;;
9188;SDS011;34313;50.780;6.084;2023-06-19T08:28:39;4.32;;;3.55;;
9188;SDS011;34313;50.780;6.084;2023-06-19T08:31:06;3.72;;;3.22;;
9188;SDS011;34313;50.780;6.084;2023-06-19T08:33:33;6.43;;;2.97;;
9188;SDS011;34313;50.780;6.084;2023-06-19T08:36:00;4.60;;;3.20;;
9188;SDS011;34313;50.780;6.084;2023-06-19T08:38:25;5.80;;;3.50;;
9188;SDS011;34313;50.780;6.084;2023-06-19T08:40:51;5.03;;;3.22;;
9188;SDS011;34313;50.780;6.084;2023-06-19T08:43:16;7.40;;;3.50;;
9188;SDS011;34313;50.780;6.084;2023-06-19T08:45:41;6.75;;;3.75;;
9188;SDS011;34313;50.780;6.084;2023-06-19T08:48:07;4.80;;;3.75;;
9188;SDS011;34313;50.780;6.084;2023-06-19T08:50:33;4.35;;;3.45;;
9188;SDS011;34313;50.780;6.084;2023-06-19T08:52:59;9.95;;;3.67;;
9188;SDS011;34313;50.780;6.084;2023-06-19T08:55:24;4.35;;;3.40;;
9188;SDS011;34313;50.780;6.084;2023-06-19T08:57:50;4.30;;;3.50;;
9188;SDS011;34313;50.780;6.084;2023-06-19T09:00:27;3.58;;;3.10;;
9188;SDS011;34313;50.780;6.084;2023-06-19T09:03:01;4.05;;;3.50;;
9188;SDS011;34313;50.780;6.084;2023-06-19T09:05:27;5.47;;;3.63;;
9188;SDS011;34313;50.780;6.084;2023-06-19T09:08:00;6.40;;;3.90;;
9188;SDS011;34313;50.780;6.084;2023-06-19T09:10:32;5.90;;;3.40;;
9188;SDS011;34313;50.780;6.084;2023-06-19T09:13:00;5.07;;;3.65;;
9188;SDS011;34313;50.780;6.084;2023-06-19T09:15:29;3.85;;;3.38;;
9188;SDS011;34313;50.780;6.084;2023-06-19T09:18:03;8.38;;;3.97;;
9188;SDS011;34313;50.780;6.084;2023-06-19T09:20:29;5.75;;;4.00;;
9188;SDS011;34313;50.780;6.084;2023-06-19T09:23:00;8.15;;;3.85;;
9188;SDS011;34313;50.780;6.084;2023-06-19T09:25:25;4.32;;;3.60;;
9188;SDS011;34313;50.780;6.084;2023-06-19T09:27:52;8.80;;;3.47;;
9188;SDS011;34313;50.780;6.084;2023-06-19T09:30:19;5.57;;;3.80;;
9188;SDS011;34313;50.780;6.084;2023-06-19T09:32:45;5.35;;;3.95;;
9188;SDS011;34313;50.780;6.084;2023-06-19T09:35:13;7.72;;;4.57;;
9188;SDS011;34313;50.780;6.084;2023-06-19T09:37:41;3.97;;;3.63;;
9188;SDS011;34313;50.780;6.084;2023-06-19T09:40:15;7.75;;;4.47;;
9188;SDS011;34313;50.780;6.084;2023-06-19T09:42:41;4.55;;;3.28;;
9188;SDS011;34313;50.780;6.084;2023-06-19T09:45:11;6.13;;;3.90;;
9188;SDS011;34313;50.780;6.084;2023-06-19T09:47:45;4.80;;;4.07;;
9188;SDS011;34313;50.780;6.084;2023-06-19T09:50:15;4.20;;;3.80;;
9188;SDS011;34313;50.780;6.084;2023-06-19T09:52:44;4.72;;;3.80;;
9188;SDS011;34313;50.780;6.084;2023-06-19T09:55:11;4.53;;;3.92;;
9188;SDS011;34313;50.780;6.084;2023-06-19T09:57:38;4.60;;;4.13;;
9188;SDS011;34313;50.780;6.084;2023-06-19T10:00:07;6.57;;;3.03;;
9188;SDS011;34313;50.780;6.084;2023-06-19T10:02:39;6.35;;;4.07;;
9188;SDS011;34313;50.780;6.084;2023-06-19T10:05:08;7.05;;;3.90;;
9188;SDS011;34313;50.780;6.084;2023-06-19T10:07:37;5.20;;;4.35;;
9188;SDS011;34313;50.780;6.084;2023-06-19T10:10:22;4.90;;;3.83;;
9188;SDS011;34313;50.780;6.084;2023-06-19T10:12:49;4.97;;;3.97;;
9188;SDS011;34313;50.780;6.084;2023-06-19T10:15:18;4.65;;;4.00;;
9188;SDS011;34313;50.780;6.084;2023-06-19T10:20:23;5.30;;;3.72;;
9188;SDS011;34313;50.780;6.084;2023-06-19T10:23:08;7.60;;;4.07;;
9188;SDS011;34313;50.780;6.084;2023-06-19T10:25:40;6.38;;;4.38;;
9188;SDS011;34313;50.780;6.084;2023-06-19T10:28:22;8.07;;;4.20;;
9188;SDS011;34313;50.780;6.084;2023-06-19T10:30:51;4.63;;;4.10;;
9188;SDS011;34313;50.780;6.084;2023-06-19T10:33:19;5.43;;;3.70;;
9188;SDS011;34313;50.780;6.084;2023-06-19T10:35:44;6.07;;;4.10;;
9188;SDS011;34313;50.780;6.084;2023-06-19T10:38:10;5.97;;;4.05;;
9188;SDS011;34313;50.780;6.084;2023-06-19T10:40:39;3.58;;;3.15;;
9188;SDS011;34313;50.780;6.084;2023-06-19T10:43:05;9.00;;;4.65;;
9188;SDS011;34313;50.780;6.084;2023-06-19T10:45:30;5.45;;;4.85;;
9188;SDS011;34313;50.780;6.084;2023-06-19T10:47:57;7.07;;;4.40;;
9188;SDS011;34313;50.780;6.084;2023-06-19T10:50:26;5.32;;;4.20;;
9188;SDS011;34313;50.780;6.084;2023-06-19T10:52:52;5.28;;;4.07;;
9188;SDS011;34313;50.780;6.084;2023-06-19T10:55:20;5.78;;;4.03;;
9188;SDS011;34313;50.780;6.084;2023-06-19T10:57:46;4.25;;;3.85;;
9188;SDS011;34313;50.780;6.084;2023-06-19T11:00:25;6.40;;;3.67;;
9188;SDS011;34313;50.780;6.084;2023-06-19T11:02:55;6.90;;;4.15;;
9188;SDS011;34313;50.780;6.084;2023-06-19T11:05:22;5.93;;;4.88;;
9188;SDS011;34313;50.780;6.084;2023-06-19T11:07:52;5.45;;;4.35;;
9188;SDS011;34313;50.780;6.084;2023-06-19T11:10:29;9.77;;;4.47;;
9188;SDS011;34313;50.780;6.084;2023-06-19T11:13:13;7.80;;;3.97;;
9188;SDS011;34313;50.780;6.084;2023-06-19T11:15:45;5.25;;;4.30;;
9188;SDS011;34313;50.780;6.084;2023-06-19T11:18:14;4.90;;;4.10;;
9188;SDS011;34313;50.780;6.084;2023-06-19T11:20:44;9.88;;;4.18;;
9188;SDS011;34313;50.780;6.084;2023-06-19T11:23:24;6.40;;;3.90;;
9188;SDS011;34313;50.780;6.084;2023-06-19T11:25:51;11.35;;;4.60;;
9188;SDS011;34313;50.780;6.084;2023-06-19T11:28:16;5.20;;;4.10;;
9188;SDS011;34313;50.780;6.084;2023-06-19T11:30:47;7.97;;;4.43;;
9188;SDS011;34313;50.780;6.084;2023-06-19T11:35:50;4.03;;;3.63;;
9188;SDS011;34313;50.780;6.084;2023-06-19T11:38:20;4.93;;;4.43;;
9188;SDS011;34313;50.780;6.084;2023-06-19T11:40:46;4.78;;;4.03;;
9188;SDS011;34313;50.780;6.084;2023-06-19T11:43:12;9.20;;;3.77;;
9188;SDS011;34313;50.780;6.084;2023-06-19T11:45:44;6.93;;;4.27;;
9188;SDS011;34313;50.780;6.084;2023-06-19T11:48:11;4.13;;;3.70;;
9188;SDS011;34313;50.780;6.084;2023-06-19T11:50:38;5.25;;;3.75;;
9188;SDS011;34313;50.780;6.084;2023-06-19T11:53:03;4.65;;;3.75;;
9188;SDS011;34313;50.780;6.084;2023-06-19T11:55:28;4.15;;;3.75;;
9188;SDS011;34313;50.780;6.084;2023-06-19T11:57:53;5.00;;;3.83;;
9188;SDS011;34313;50.780;6.084;2023-06-19T12:00:19;6.00;;;3.88;;
9188;SDS011;34313;50.780;6.084;2023-06-19T12:02:44;4.70;;;3.83;;
9188;SDS011;34313;50.780;6.084;2023-06-19T12:05:12;7.60;;;4.70;;
9188;SDS011;34313;50.780;6.084;2023-06-19T12:07:37;10.93;;;3.75;;
9188;SDS011;34313;50.780;6.084;2023-06-19T12:10:03;7.32;;;3.95;;
9188;SDS011;34313;50.780;6.084;2023-06-19T12:12:30;5.35;;;4.30;;
9188;SDS011;34313;50.780;6.084;2023-06-19T12:14:56;5.43;;;3.95;;
9188;SDS011;34313;50.780;6.084;2023-06-19T12:17:21;7.35;;;4.78;;
9188;SDS011;34313;50.780;6.084;2023-06-19T12:19:47;9.73;;;3.25;;
9188;SDS011;34313;50.780;6.084;2023-06-19T12:22:13;7.75;;;3.58;;
9188;SDS011;34313;50.780;6.084;2023-06-19T12:24:39;7.70;;;4.35;;
9188;SDS011;34313;50.780;6.084;2023-06-19T12:27:04;4.68;;;3.60;;
9188;SDS011;34313;50.780;6.084;2023-06-19T12:29:30;6.00;;;3.90;;
9188;SDS011;34313;50.780;6.084;2023-06-19T12:32:02;4.78;;;3.83;;
9188;SDS011;34313;50.780;6.084;2023-06-19T12:34:28;4.60;;;3.33;;
9188;SDS011;34313;50.780;6.084;2023-06-19T12:36:54;4.63;;;3.55;;
9188;SDS011;34313;50.780;6.084;2023-06-19T12:39:20;6.40;;;3.50;;
9188;SDS011;34313;50.780;6.084;2023-06-19T12:41:45;5.68;;;3.28;;
9188;SDS011;34313;50.780;6.084;2023-06-19T12:44:10;5.72;;;3.25;;
9188;SDS011;34313;50.780;6.084;2023-06-19T12:46:36;6.45;;;3.97;;
9188;SDS011;34313;50.780;6.084;2023-06-19T12:49:02;5.18;;;3.20;;
9188;SDS011;34313;50.780;6.084;2023-06-19T12:51:27;5.45;;;3.53;;
9188;SDS011;34313;50.780;6.084;2023-06-19T12:53:52;6.37;;;3.90;;
9188;SDS011;34313;50.780;6.084;2023-06-19T12:56:18;4.10;;;3.40;;
9188;SDS011;34313;50.780;6.084;2023-06-19T12:58:43;7.32;;;3.58;;
9188;SDS011;34313;50.780;6.084;2023-06-19T13:01:08;3.93;;;3.40;;
9188;SDS011;34313;50.780;6.084;2023-06-19T13:03:33;11.00;;;3.60;;
9188;SDS011;34313;50.780;6.084;2023-06-19T13:05:59;6.32;;;4.20;;
9188;SDS011;34313;50.780;6.084;2023-06-19T13:08:24;6.90;;;4.47;;
9188;SDS011;34313;50.780;6.084;2023-06-19T13:10:49;5.47;;;3.92;;
9188;SDS011;34313;50.780;6.084;2023-06-19T13:13:17;5.80;;;3.70;;
9188;SDS011;34313;50.780;6.084;2023-06-19T13:15:42;3.83;;;3.47;;
9188;SDS011;34313;50.780;6.084;2023-06-19T13:18:07;7.53;;;4.13;;
9188;SDS011;34313;50.780;6.084;2023-06-19T13:20:33;5.28;;;3.65;;
9188;SDS011;34313;50.780;6.084;2023-06-19T13:22:58;4.88;;;3.58;;
9188;SDS011;34313;50.780;6.084;2023-06-19T13:25:23;3.83;;;3.43;;
9188;SDS011;34313;50.780;6.084;2023-06-19T13:27:49;5.60;;;3.83;;
9188;SDS011;34313;50.780;6.084;2023-06-19T13:30:14;3.88;;;3.47;;
9188;SDS011;34313;50.780;6.084;2023-06-19T13:32:41;3.70;;;3.23;;
9188;SDS011;34313;50.780;6.084;2023-06-19T13:35:11;4.80;;;3.58;;
9188;SDS011;34313;50.780;6.084;2023-06-19T13:37:37;5.82;;;3.80;;
9188;SDS011;34313;50.780;6.084;2023-06-19T13:40:06;7.05;;;3.67;;
9188;SDS011;34313;50.780;6.084;2023-06-19T13:42:32;5.03;;;3.57;;
9188;SDS011;34313;50.780;6.084;2023-06-19T13:45:00;4.30;;;3.25;;
9188;SDS011;34313;50.780;6.084;2023-06-19T13:47:25;4.00;;;3.57;;
9188;SDS011;34313;50.780;6.084;2023-06-19T13:49:50;3.97;;;3.57;;
9188;SDS011;34313;50.780;6.084;2023-06-19T13:52:16;4.20;;;3.80;;
9188;SDS011;34313;50.780;6.084;2023-06-19T13:54:44;3.93;;;3.40;;
9188;SDS011;34313;50.780;6.084;2023-06-19T13:57:09;4.40;;;3.67;;
9188;SDS011;34313;50.780;6.084;2023-06-19T13:59:34;5.07;;;3.67;;
9188;SDS011;34313;50.780;6.084;2023-06-19T14:02:00;9.82;;;3.83;;
9188;SDS011;34313;50.780;6.084;2023-06-19T14:04:25;10.30;;;4.37;;
9188;SDS011;34313;50.780;6.084;2023-06-19T14:06:51;6.20;;;4.03;;
9188;SDS011;34313;50.780;6.084;2023-06-19T14:09:16;5.15;;;3.60;;
9188;SDS011;34313;50.780;6.084;2023-06-19T14:11:41;5.37;;;4.20;;
9188;SDS011;34313;50.780;6.084;2023-06-19T14:14:09;6.83;;;3.83;;
9188;SDS011;34313;50.780;6.084;2023-06-19T14:16:34;5.83;;;3.70;;
9188;SDS011;34313;50.780;6.084;2023-06-19T14:19:03;7.70;;;3.50;;
9188;SDS011;34313;50.780;6.084;2023-06-19T14:21:28;3.90;;;3.50;;
9188;SDS011;34313;50.780;6.084;2023-06-19T14:23:54;5.35;;;3.75;;
9188;SDS011;34313;50.780;6.084;2023-06-19T14:26:19;5.97;;;3.53;;
9188;SDS011;34313;50.780;6.084;2023-06-19T14:28:45;6.20;;;3.37;;
9188;SDS011;34313;50.780;6.084;2023-06-19T14:31:10;10.07;;;3.73;;
9188;SDS011;34313;50.780;6.084;2023-06-19T14:33:36;6.03;;;3.33;;
9188;SDS011;34313;50.780;6.084;2023-06-19T14:36:03;4.20;;;3.03;;
9188;SDS011;34313;50.780;6.084;2023-06-19T14:38:28;4.73;;;2.90;;
9188;SDS011;34313;50.780;6.084;2023-06-19T14:40:57;4.10;;;3.40;;
9188;SDS011;34313;50.780;6.084;2023-06-19T14:43:23;3.10;;;2.80;;
9188;SDS011;34313;50.780;6.084;2023-06-19T14:45:49;6.23;;;3.57;;
9188;SDS011;34313;50.780;6.084;2023-06-19T14:48:17;4.30;;;3.50;;
9188;SDS011;34313;50.780;6.084;2023-06-19T14:50:43;5.73;;;3.63;;
9188;SDS011;34313;50.780;6.084;2023-06-19T14:53:08;5.57;;;3.70;;
9188;SDS011;34313;50.780;6.084;2023-06-19T14:55:36;4.90;;;3.70;;
9188;SDS011;34313;50.780;6.084;2023-06-19T14:58:12;3.70;;;3.40;;
9188;SDS011;34313;50.780;6.084;2023-06-19T15:00:40;4.27;;;3.87;;
9188;SDS011;34313;50.780;6.084;2023-06-19T15:03:11;4.10;;;3.30;;
9188;SDS011;34313;50.780;6.084;2023-06-19T15:05:37;4.10;;;3.47;;
9188;SDS011;34313;50.780;6.084;2023-06-19T15:08:08;6.03;;;3.38;;
9188;SDS011;34313;50.780;6.084;2023-06-19T15:13:24;5.70;;;3.73;;
9188;SDS011;34313;50.780;6.084;2023-06-19T15:15:50;5.23;;;3.47;;
9188;SDS011;34313;50.780;6.084;2023-06-19T15:21:51;7.73;;;3.90;;
9188;SDS011;34313;50.780;6.084;2023-06-19T15:24:24;4.77;;;3.50;;
9188;SDS011;34313;50.780;6.084;2023-06-19T15:26:57;4.05;;;3.25;;
9188;SDS011;34313;50.780;6.084;2023-06-19T15:29:25;3.80;;;3.40;;
9188;SDS011;34313;50.780;6.084;2023-06-19T15:31:54;7.30;;;3.20;;
9188;SDS011;34313;50.780;6.084;2023-06-19T15:34:30;4.97;;;3.50;;
9188;SDS011;34313;50.780;6.084;2023-06-19T15:37:09;3.88;;;3.47;;
9188;SDS011;34313;50.780;6.084;2023-06-19T15:39:46;4.10;;;3.47;;
9188;SDS011;34313;50.780;6.084;2023-06-19T15:42:29;3.83;;;3.13;;
9188;SDS011;34313;50.780;6.084;2023-06-19T15:45:20;3.80;;;3.43;;
9188;SDS011;34313;50.780;6.084;2023-06-19T15:48:12;4.00;;;3.57;;
9188;SDS011;34313;50.780;6.084;2023-06-19T15:51:07;4.30;;;3.70;;
9188;SDS011;34313;50.780;6.084;2023-06-19T15:53:32;4.80;;;3.97;;
9188;SDS011;34313;50.780;6.084;2023-06-19T15:56:09;4.20;;;3.67;;
9188;SDS011;34313;50.780;6.084;2023-06-19T15:59:10;4.17;;;3.70;;
9188;SDS011;34313;50.780;6.084;2023-06-19T16:01:46;4.27;;;3.40;;
9188;SDS011;34313;50.780;6.084;2023-06-19T16:04:11;3.33;;;3.03;;
9188;SDS011;34313;50.780;6.084;2023-06-19T16:06:36;4.40;;;3.63;;
9188;SDS011;34313;50.780;6.084;2023-06-19T16:09:02;6.83;;;3.80;;
9188;SDS011;34313;50.780;6.084;2023-06-19T16:11:27;7.20;;;4.73;;
9188;SDS011;34313;50.780;6.084;2023-06-19T16:13:53;3.73;;;3.10;;
9188;SDS011;34313;50.780;6.084;2023-06-19T16:16:18;8.50;;;4.40;;
9188;SDS011;34313;50.780;6.084;2023-06-19T16:18:47;4.87;;;4.20;;
9188;SDS011;34313;50.780;6.084;2023-06-19T16:21:12;5.33;;;3.67;;
9188;SDS011;34313;50.780;6.084;2023-06-19T16:23:40;6.43;;;3.60;;
9188;SDS011;34313;50.780;6.084;2023-06-19T16:26:05;3.80;;;3.40;;
9188;SDS011;34313;50.780;6.084;2023-06-19T16:28:37;4.30;;;3.50;;